createdAt,value
2022-08-31T00:01:43.628Z,13.70
2022-08-31T00:04:13.507Z,13.60
2022-08-31T00:06:43.704Z,13.40
2022-08-31T00:09:12.308Z,13.30
2022-08-31T00:11:41.166Z,13.00
2022-08-31T00:14:13.378Z,12.90
2022-08-31T00:16:44.414Z,12.70
2022-08-31T00:19:13.627Z,12.50
2022-08-31T00:21:44.679Z,12.50
2022-08-31T00:24:14.546Z,12.40
2022-08-31T00:26:44.018Z,12.30
2022-08-31T00:29:12.921Z,12.20
2022-08-31T00:31:42.035Z,12.10
2022-08-31T00:34:10.736Z,11.90
2022-08-31T00:36:39.382Z,11.80
2022-08-31T00:39:09.508Z,11.70
2022-08-31T00:41:41.215Z,11.60
2022-08-31T00:44:11.884Z,11.60
2022-08-31T00:46:43.602Z,11.50
2022-08-31T00:49:16.966Z,11.50
2022-08-31T00:51:50.476Z,11.50
2022-08-31T00:54:25.150Z,11.50
2022-08-31T00:56:54.447Z,11.50
2022-08-31T00:59:24.655Z,11.50
2022-08-31T01:01:53.765Z,11.50
2022-08-31T01:04:22.904Z,11.50
2022-08-31T01:06:52.606Z,11.50
2022-08-31T01:10:18.971Z,11.60
2022-08-31T01:12:50.618Z,11.60
2022-08-31T01:15:19.961Z,11.70
2022-08-31T01:17:50.831Z,11.70
2022-08-31T01:20:26.068Z,11.70
2022-08-31T01:23:07.570Z,11.70
2022-08-31T01:25:37.289Z,11.70
2022-08-31T01:28:08.019Z,11.70
2022-08-31T01:30:37.581Z,11.70
2022-08-31T01:33:06.391Z,11.60
2022-08-31T01:35:35.654Z,11.60
2022-08-31T01:38:05.870Z,11.60
2022-08-31T01:40:38.151Z,11.60
2022-08-31T01:43:06.929Z,11.60
2022-08-31T01:45:35.570Z,11.60
2022-08-31T01:48:04.602Z,11.70
2022-08-31T01:50:33.130Z,11.60
2022-08-31T01:53:01.700Z,11.60
2022-08-31T01:55:32.831Z,11.60
2022-08-31T01:58:02.210Z,11.70
2022-08-31T02:00:31.361Z,11.80
2022-08-31T02:03:03.710Z,11.80
2022-08-31T02:05:32.977Z,11.70
2022-08-31T02:08:01.596Z,11.70
2022-08-31T02:10:31.839Z,11.70
2022-08-31T02:13:00.450Z,11.70
2022-08-31T02:15:29.500Z,11.60
2022-08-31T02:17:58.091Z,11.60
2022-08-31T02:20:27.719Z,11.40
2022-08-31T02:22:56.314Z,11.50
2022-08-31T02:25:24.919Z,11.50
2022-08-31T02:27:54.970Z,11.50
2022-08-31T02:30:23.570Z,11.40
2022-08-31T02:32:52.269Z,11.50
2022-08-31T02:35:21.137Z,11.40
2022-08-31T02:37:49.810Z,11.50
2022-08-31T02:40:18.641Z,11.60
2022-08-31T02:42:52.132Z,11.50
2022-08-31T02:45:24.023Z,11.50
2022-08-31T02:47:53.009Z,11.50
2022-08-31T02:50:21.829Z,11.50
2022-08-31T02:52:50.970Z,11.50
2022-08-31T02:55:19.719Z,11.40
2022-08-31T02:57:51.279Z,11.40
2022-08-31T03:00:24.471Z,11.30
2022-08-31T03:02:55.084Z,11.20
2022-08-31T03:05:24.308Z,11.20
2022-08-31T03:07:53.190Z,11.00
2022-08-31T03:10:23.980Z,11.00
2022-08-31T03:12:54.271Z,10.90
2022-08-31T03:15:25.110Z,10.90
2022-08-31T03:17:55.451Z,10.90
2022-08-31T03:20:26.592Z,10.80
2022-08-31T03:22:55.221Z,10.80
2022-08-31T03:25:24.650Z,10.70
2022-08-31T03:27:53.481Z,10.80
2022-08-31T03:30:23.506Z,10.90
2022-08-31T03:32:57.259Z,10.90
2022-08-31T03:35:32.070Z,10.90
2022-08-31T03:38:02.360Z,11.00
2022-08-31T03:40:31.748Z,11.00
2022-08-31T03:43:00.750Z,11.00
2022-08-31T03:45:32.181Z,10.90
2022-08-31T03:48:05.495Z,10.90
2022-08-31T03:50:36.756Z,10.90
2022-08-31T03:53:07.592Z,10.90
2022-08-31T03:55:38.851Z,10.80
2022-08-31T03:58:07.855Z,10.70
2022-08-31T04:00:37.360Z,10.60
2022-08-31T04:03:07.625Z,10.50
2022-08-31T04:05:38.495Z,10.40
2022-08-31T04:08:07.102Z,10.30
2022-08-31T04:10:35.699Z,10.30
2022-08-31T04:13:04.752Z,10.30
2022-08-31T04:15:33.649Z,10.40
2022-08-31T04:18:02.260Z,10.40
2022-08-31T04:20:35.739Z,10.40
2022-08-31T04:23:07.420Z,10.60
2022-08-31T04:25:39.723Z,10.70
2022-08-31T04:28:09.346Z,10.90
2022-08-31T04:30:43.504Z,10.90
2022-08-31T04:33:12.385Z,10.90
2022-08-31T04:35:43.509Z,11.10
2022-08-31T04:38:12.520Z,11.20
2022-08-31T04:40:41.990Z,11.20
2022-08-31T04:43:10.630Z,11.10
2022-08-31T04:45:45.212Z,11.10
2022-08-31T04:48:14.998Z,11.10
2022-08-31T04:50:45.070Z,11.00
2022-08-31T04:53:13.922Z,11.00
2022-08-31T04:55:43.160Z,11.00
2022-08-31T04:58:13.916Z,11.00
2022-08-31T05:00:44.155Z,10.90
2022-08-31T05:03:12.813Z,10.90
2022-08-31T05:05:42.225Z,11.00
2022-08-31T05:08:12.208Z,10.90
2022-08-31T05:10:41.540Z,10.90
2022-08-31T05:13:10.126Z,10.90
2022-08-31T05:15:43.957Z,10.80
2022-08-31T05:18:12.962Z,10.90
2022-08-31T05:20:41.942Z,11.00
2022-08-31T05:23:12.290Z,11.10
2022-08-31T05:25:41.641Z,11.20
2022-08-31T05:28:11.041Z,11.30
2022-08-31T05:30:39.723Z,11.30
2022-08-31T05:33:08.390Z,11.30
2022-08-31T05:35:37.789Z,11.30
2022-08-31T05:38:06.420Z,11.40
2022-08-31T05:40:36.497Z,11.30
2022-08-31T05:43:05.202Z,11.30
2022-08-31T05:45:34.026Z,11.30
2022-08-31T05:48:02.637Z,11.40
2022-08-31T05:50:34.820Z,11.50
2022-08-31T05:53:03.729Z,11.50
2022-08-31T05:55:33.534Z,11.60
2022-08-31T05:58:03.630Z,11.70
2022-08-31T06:00:32.427Z,11.90
2022-08-31T06:03:01.063Z,11.90
2022-08-31T06:05:31.218Z,12.10
2022-08-31T06:07:59.870Z,12.20
2022-08-31T06:10:28.529Z,12.30
2022-08-31T06:12:57.260Z,12.40
2022-08-31T06:15:27.311Z,12.60
2022-08-31T06:17:55.869Z,12.70
2022-08-31T06:20:24.670Z,12.80
2022-08-31T06:22:55.459Z,13.00
2022-08-31T06:25:24.854Z,13.10
2022-08-31T06:27:56.724Z,13.20
2022-08-31T06:30:27.677Z,13.40
2022-08-31T06:32:58.703Z,13.50
2022-08-31T06:35:27.720Z,13.60
2022-08-31T06:37:57.002Z,13.70
2022-08-31T06:40:26.978Z,13.80
2022-08-31T06:42:55.749Z,14.00
2022-08-31T06:45:24.388Z,14.10
2022-08-31T06:47:54.460Z,14.20
2022-08-31T06:50:23.927Z,14.40
2022-08-31T06:52:52.449Z,14.50
2022-08-31T06:55:21.109Z,14.60
2022-08-31T06:57:49.828Z,14.60
2022-08-31T07:00:18.667Z,14.80
2022-08-31T07:02:57.256Z,14.90
2022-08-31T07:05:27.933Z,15.00
2022-08-31T07:07:56.513Z,15.10
2022-08-31T07:10:25.005Z,15.20
2022-08-31T07:12:53.621Z,15.30
2022-08-31T07:15:22.186Z,15.50
2022-08-31T07:17:51.915Z,15.60
2022-08-31T07:20:20.690Z,15.80
2022-08-31T07:22:50.654Z,15.90
2022-08-31T07:25:19.459Z,16.10
2022-08-31T07:27:55.687Z,16.20
2022-08-31T07:30:24.464Z,16.30
2022-08-31T07:32:56.335Z,16.50
2022-08-31T07:35:25.169Z,16.60
2022-08-31T07:38:12.561Z,16.70
2022-08-31T07:40:59.107Z,16.90
2022-08-31T07:43:27.909Z,17.10
2022-08-31T07:45:56.551Z,17.30
2022-08-31T07:48:25.815Z,17.40
2022-08-31T07:50:56.674Z,17.50
2022-08-31T07:53:27.690Z,17.70
2022-08-31T07:56:00.619Z,17.90
2022-08-31T07:58:29.320Z,18.10
2022-08-31T08:01:00.678Z,18.40
2022-08-31T08:03:31.060Z,18.80
2022-08-31T08:05:59.710Z,19.20
2022-08-31T08:08:32.319Z,19.80
2022-08-31T08:11:01.060Z,20.40
2022-08-31T08:13:32.410Z,20.90
2022-08-31T08:16:01.088Z,21.70
2022-08-31T08:18:32.032Z,22.90
2022-08-31T08:21:00.750Z,24.70
2022-08-31T08:23:34.301Z,26.50
2022-08-31T08:26:21.326Z,27.80
2022-08-31T08:28:50.929Z,29.00
2022-08-31T08:31:23.331Z,29.90
2022-08-31T08:33:53.192Z,30.30
2022-08-31T08:36:21.772Z,31.00
2022-08-31T08:38:54.248Z,31.60
2022-08-31T08:41:24.134Z,32.30
2022-08-31T08:43:57.286Z,32.80
2022-08-31T08:47:38.563Z,33.00
2022-08-31T08:49:24.825Z,33.40
2022-08-31T08:51:59.660Z,33.70
2022-08-31T08:54:35.790Z,34.20
2022-08-31T08:57:12.986Z,34.90
2022-08-31T08:59:43.011Z,34.40
2022-08-31T09:02:15.748Z,34.80
2022-08-31T09:04:59.905Z,35.50
2022-08-31T09:07:56.524Z,35.40
2022-08-31T09:10:33.059Z,33.70
2022-08-31T09:13:10.460Z,31.80
2022-08-31T09:15:54.460Z,30.60
2022-08-31T09:18:33.433Z,31.70
2022-08-31T09:21:08.314Z,32.80
2022-08-31T09:23:41.636Z,32.90
2022-08-31T09:26:17.940Z,32.40
2022-08-31T09:28:48.606Z,30.90
2022-08-31T09:31:37.482Z,29.30
2022-08-31T09:34:14.456Z,30.00
2022-08-31T09:36:43.371Z,31.50
2022-08-31T09:39:21.970Z,32.90
2022-08-31T09:41:53.031Z,32.70
2022-08-31T09:44:31.246Z,31.60
2022-08-31T09:47:03.011Z,30.00
2022-08-31T09:49:36.937Z,28.90
2022-08-31T09:52:21.561Z,29.30
2022-08-31T09:55:19.819Z,31.10
2022-08-31T09:57:57.411Z,32.80
2022-08-31T10:00:34.500Z,33.70
2022-08-31T10:03:13.652Z,34.60
2022-08-31T10:05:44.723Z,35.60
2022-08-31T10:08:40.420Z,35.60
2022-08-31T10:11:14.862Z,35.30
2022-08-31T10:13:58.990Z,36.00
2022-08-31T10:16:31.633Z,36.00
2022-08-31T10:19:06.447Z,36.50
2022-08-31T10:21:45.401Z,36.90
2022-08-31T10:24:28.260Z,37.40
2022-08-31T10:27:15.310Z,37.70
2022-08-31T10:29:52.212Z,38.10
2022-08-31T10:32:31.774Z,38.40
2022-08-31T10:35:08.352Z,38.80
2022-08-31T10:37:55.102Z,39.10
2022-08-31T10:40:32.350Z,39.10
2022-08-31T10:43:14.397Z,37.50
2022-08-31T10:45:49.147Z,35.30
2022-08-31T10:48:19.200Z,33.50
2022-08-31T10:50:54.108Z,32.10
2022-08-31T10:53:40.062Z,30.60
2022-08-31T10:56:15.600Z,29.50
2022-08-31T10:58:59.910Z,31.10
2022-08-31T11:01:40.448Z,32.70
2022-08-31T11:04:29.582Z,32.90
2022-08-31T11:07:04.220Z,32.30
2022-08-31T11:09:36.941Z,33.60
2022-08-31T11:12:11.162Z,35.00
2022-08-31T11:15:06.089Z,36.30
2022-08-31T11:17:55.622Z,37.10
2022-08-31T11:20:57.330Z,38.10
2022-08-31T11:23:45.160Z,38.90
2022-08-31T11:26:46.447Z,38.20
2022-08-31T11:29:32.494Z,37.60
2022-08-31T11:32:12.991Z,35.40
2022-08-31T11:34:50.820Z,35.40
2022-08-31T11:37:52.507Z,36.60
2022-08-31T11:41:03.895Z,38.00
2022-08-31T11:43:54.509Z,38.20
2022-08-31T11:46:46.041Z,36.30
2022-08-31T11:49:56.000Z,35.90
2022-08-31T11:52:34.654Z,36.90
2022-08-31T11:55:21.131Z,35.40
2022-08-31T11:58:21.088Z,34.40
2022-08-31T12:00:58.342Z,35.20
2022-08-31T12:03:50.860Z,36.20
2022-08-31T12:07:05.442Z,37.00
2022-08-31T12:10:11.521Z,36.30
2022-08-31T12:13:07.673Z,34.10
2022-08-31T12:16:01.495Z,33.10
2022-08-31T12:18:51.461Z,31.50
2022-08-31T12:22:11.959Z,32.20
2022-08-31T12:24:58.871Z,34.30
2022-08-31T12:27:41.064Z,35.30
2022-08-31T12:30:34.548Z,35.80
2022-08-31T12:33:31.389Z,37.10
2022-08-31T12:36:30.940Z,37.40
2022-08-31T12:39:27.313Z,37.30
2022-08-31T12:42:22.941Z,35.80
2022-08-31T12:45:17.982Z,33.20
2022-08-31T12:56:15.079Z,33.10
2022-08-31T12:59:10.886Z,32.20
2022-08-31T13:01:49.991Z,32.80
2022-08-31T13:04:26.006Z,34.10
2022-08-31T13:07:13.679Z,34.70
2022-08-31T13:09:42.712Z,35.50
2022-08-31T13:12:23.347Z,36.90
2022-08-31T13:14:59.305Z,36.90
2022-08-31T13:17:30.916Z,35.40
2022-08-31T13:20:03.033Z,34.30
2022-08-31T13:22:34.012Z,33.70
2022-08-31T13:25:14.408Z,33.20
2022-08-31T13:27:49.319Z,32.80
2022-08-31T13:30:26.021Z,31.50
2022-08-31T13:32:57.381Z,30.40
2022-08-31T13:35:37.276Z,29.70
2022-08-31T13:38:08.038Z,29.20
2022-08-31T13:40:39.734Z,28.90
2022-08-31T13:43:11.882Z,29.00
2022-08-31T13:45:58.721Z,29.30
2022-08-31T13:48:33.973Z,30.70
2022-08-31T13:51:07.497Z,31.30
2022-08-31T13:53:40.682Z,31.90
2022-08-31T13:56:43.930Z,32.00
2022-08-31T13:59:20.259Z,32.30
2022-08-31T14:01:51.321Z,33.60
2022-08-31T14:05:00.578Z,34.20
2022-08-31T14:07:35.620Z,34.80
2022-08-31T14:10:15.520Z,35.10
2022-08-31T14:12:49.073Z,34.70
2022-08-31T14:15:33.650Z,34.10
2022-08-31T14:18:24.409Z,32.90
2022-08-31T14:21:25.393Z,32.00
2022-08-31T14:24:01.678Z,32.00
2022-08-31T14:26:34.232Z,31.90
2022-08-31T14:29:16.086Z,32.20
2022-08-31T14:31:49.470Z,32.60
2022-08-31T14:34:26.733Z,33.00
2022-08-31T14:37:03.079Z,33.60
2022-08-31T14:39:34.218Z,33.80
2022-08-31T14:42:07.766Z,34.20
2022-08-31T14:44:40.989Z,34.20
2022-08-31T14:47:10.316Z,33.80
2022-08-31T14:49:46.000Z,33.00
2022-08-31T14:52:16.309Z,31.30
2022-08-31T14:54:46.270Z,30.10
2022-08-31T14:57:22.519Z,28.90
2022-08-31T14:59:52.659Z,28.20
2022-08-31T15:02:22.189Z,27.50
2022-08-31T15:04:53.016Z,27.20
2022-08-31T15:07:22.585Z,27.00
2022-08-31T15:09:51.923Z,26.70
2022-08-31T15:12:21.067Z,26.60
2022-08-31T15:14:50.033Z,26.40
2022-08-31T15:17:21.097Z,26.30
2022-08-31T15:19:55.327Z,26.80
2022-08-31T15:22:25.767Z,27.70
2022-08-31T15:24:57.080Z,28.50
2022-08-31T15:27:29.330Z,29.00
2022-08-31T15:30:05.052Z,29.30
2022-08-31T15:32:34.868Z,29.60
2022-08-31T15:35:05.515Z,29.70
2022-08-31T15:37:34.462Z,29.80
2022-08-31T15:40:10.273Z,29.80
2022-08-31T15:42:40.172Z,29.80
2022-08-31T15:45:13.069Z,29.70
2022-08-31T15:47:59.772Z,29.60
2022-08-31T15:50:32.830Z,29.30
2022-08-31T15:53:09.483Z,29.20
2022-08-31T15:55:41.151Z,29.00
2022-08-31T15:58:10.990Z,28.60
2022-08-31T16:00:42.321Z,28.10
2022-08-31T16:03:12.953Z,27.70
2022-08-31T16:05:44.081Z,27.50
2022-08-31T16:08:14.062Z,27.20
2022-08-31T16:10:47.612Z,27.00
2022-08-31T16:13:17.536Z,26.90
2022-08-31T16:15:52.721Z,26.60
2022-08-31T16:18:23.130Z,26.20
2022-08-31T16:20:54.887Z,26.00
2022-08-31T16:23:24.963Z,25.80
2022-08-31T16:25:54.257Z,25.60
2022-08-31T16:28:23.527Z,25.50
2022-08-31T16:30:52.712Z,25.30
2022-08-31T16:33:22.627Z,25.20
2022-08-31T16:35:54.656Z,25.00
2022-08-31T16:38:24.211Z,24.90
2022-08-31T16:40:54.048Z,24.90
2022-08-31T16:43:23.839Z,24.80
2022-08-31T16:45:52.938Z,24.80
2022-08-31T16:48:35.509Z,24.70
2022-08-31T16:51:06.238Z,24.70
2022-08-31T16:53:36.447Z,24.60
2022-08-31T16:56:05.624Z,24.50
2022-08-31T16:58:51.045Z,24.40
2022-08-31T17:01:24.562Z,24.20
2022-08-31T17:03:56.205Z,24.00
2022-08-31T17:06:27.515Z,23.80
2022-08-31T17:08:59.379Z,23.60
2022-08-31T17:11:32.398Z,23.40
2022-08-31T17:14:03.079Z,23.30
2022-08-31T17:16:35.019Z,23.10
2022-08-31T17:19:08.149Z,22.90
2022-08-31T17:21:49.693Z,22.80
2022-08-31T17:24:21.935Z,22.50
2022-08-31T17:26:52.241Z,22.30
2022-08-31T17:29:22.657Z,22.20
2022-08-31T17:31:53.474Z,22.10
2022-08-31T17:34:27.119Z,22.00
2022-08-31T17:37:01.632Z,21.80
2022-08-31T17:39:30.640Z,21.60
2022-08-31T17:42:00.147Z,21.40
2022-08-31T17:44:31.291Z,21.30
2022-08-31T17:47:01.804Z,21.20
2022-08-31T17:49:37.825Z,21.00
2022-08-31T17:52:10.060Z,20.90
2022-08-31T17:54:43.311Z,20.80
2022-08-31T17:57:14.931Z,20.70
2022-08-31T17:59:58.773Z,20.70
2022-08-31T18:02:48.459Z,20.60
2022-08-31T18:05:21.265Z,20.40
2022-08-31T18:07:52.399Z,20.30
2022-08-31T18:10:21.879Z,20.10
2022-08-31T18:12:51.029Z,20.00
2022-08-31T18:15:20.575Z,19.90
2022-08-31T18:18:02.580Z,19.80
2022-08-31T18:20:33.290Z,19.80
2022-08-31T18:23:04.889Z,19.60
2022-08-31T18:25:36.956Z,19.50
2022-08-31T18:28:06.611Z,19.40
2022-08-31T18:30:41.113Z,19.40
2022-08-31T18:33:14.838Z,19.30
2022-08-31T18:35:46.588Z,19.20
2022-08-31T18:38:18.247Z,19.30
2022-08-31T18:41:05.022Z,19.20
2022-08-31T18:43:52.091Z,19.00
2022-08-31T18:46:28.954Z,19.10
2022-08-31T18:49:12.109Z,18.90
2022-08-31T18:51:47.623Z,18.80
2022-08-31T18:54:20.021Z,18.80
2022-08-31T18:56:53.065Z,18.80
2022-08-31T18:59:22.516Z,18.70
2022-08-31T19:01:52.607Z,18.60
2022-08-31T19:04:22.587Z,18.60
2022-08-31T19:06:52.791Z,18.60
2022-08-31T19:09:24.474Z,18.50
2022-08-31T19:11:56.244Z,18.40
2022-08-31T19:14:27.866Z,18.40
2022-08-31T19:17:01.274Z,18.40
2022-08-31T19:19:34.035Z,18.30
2022-08-31T19:22:03.738Z,18.40
2022-08-31T19:24:34.744Z,18.20
2022-08-31T19:27:04.104Z,18.10
2022-08-31T19:29:33.784Z,18.10
2022-08-31T19:32:05.717Z,17.90
2022-08-31T19:34:38.438Z,17.90
2022-08-31T19:37:09.808Z,17.80
2022-08-31T19:39:45.703Z,17.80
2022-08-31T19:42:17.308Z,17.70
2022-08-31T19:45:22.487Z,17.70
2022-08-31T19:47:39.150Z,17.70
2022-08-31T19:50:13.589Z,17.60
2022-08-31T19:52:43.075Z,17.50
2022-08-31T19:55:13.849Z,17.50
2022-08-31T19:57:43.682Z,17.30
2022-08-31T20:00:14.170Z,17.20
2022-08-31T20:06:25.669Z,17.10
2022-08-31T20:08:55.387Z,17.10
2022-08-31T20:11:29.510Z,17.00
2022-08-31T20:14:00.436Z,17.10
2022-08-31T20:16:33.485Z,17.20
2022-08-31T20:19:05.060Z,17.20
2022-08-31T20:21:36.197Z,17.10
2022-08-31T20:24:10.937Z,17.10
2022-08-31T20:26:51.662Z,17.20
2022-08-31T20:29:22.497Z,17.10
2022-08-31T20:31:55.488Z,17.10
2022-08-31T20:34:26.608Z,17.00
2022-08-31T20:37:00.870Z,17.00
2022-08-31T20:39:31.605Z,17.00
2022-08-31T20:42:03.532Z,16.90
2022-08-31T20:44:35.053Z,16.80
2022-08-31T20:47:23.221Z,16.60
2022-08-31T20:49:54.910Z,16.40
2022-08-31T20:52:25.259Z,16.40
2022-08-31T20:55:01.615Z,16.40
2022-08-31T20:57:33.747Z,16.40
2022-08-31T21:00:05.618Z,16.30
2022-08-31T21:02:35.222Z,16.20
2022-08-31T21:05:36.597Z,16.20
2022-08-31T21:07:57.311Z,16.30
2022-08-31T21:10:36.148Z,16.40
2022-08-31T21:13:08.679Z,16.40
2022-08-31T21:15:42.083Z,16.40
2022-08-31T21:18:11.884Z,16.40
2022-08-31T21:20:42.002Z,16.40
2022-08-31T21:23:10.776Z,16.40
2022-08-31T21:25:45.351Z,16.30
2022-08-31T21:28:18.367Z,16.30
2022-08-31T21:30:49.739Z,16.30
2022-08-31T21:33:18.870Z,16.30
2022-08-31T21:35:47.850Z,16.20
2022-08-31T21:38:17.980Z,16.30
2022-08-31T21:40:51.314Z,16.40
2022-08-31T21:43:21.748Z,16.40
2022-08-31T21:46:00.578Z,16.30
2022-08-31T21:48:31.130Z,16.30
2022-08-31T21:51:00.270Z,16.30
2022-08-31T21:53:28.951Z,16.20
2022-08-31T21:55:57.540Z,16.30
2022-08-31T21:58:27.470Z,16.30
2022-08-31T22:00:56.610Z,16.20
2022-08-31T22:03:25.380Z,16.30
2022-08-31T22:05:54.451Z,16.30
2022-08-31T22:08:26.241Z,16.30
2022-08-31T22:10:55.421Z,16.30
2022-08-31T22:13:24.114Z,16.20
2022-08-31T22:15:54.427Z,16.10
2022-08-31T22:21:16.482Z,16.30
2022-08-31T22:23:45.211Z,16.30
2022-08-31T22:26:14.710Z,16.30
2022-08-31T22:28:44.213Z,16.20
2022-08-31T22:31:16.216Z,16.20
2022-08-31T22:33:47.380Z,16.20
2022-08-31T22:36:31.801Z,16.20
2022-08-31T22:39:03.443Z,16.10
2022-08-31T22:41:32.956Z,16.00
2022-08-31T22:44:02.950Z,16.00
2022-08-31T22:46:33.065Z,16.10
2022-08-31T22:49:01.999Z,15.90
2022-08-31T22:51:31.053Z,15.80
2022-08-31T22:53:59.792Z,15.90
2022-08-31T22:56:30.999Z,15.90
2022-08-31T22:59:02.516Z,15.90
2022-08-31T23:01:35.659Z,15.80
2022-08-31T23:04:07.319Z,15.90
2022-08-31T23:06:38.199Z,15.90
2022-08-31T23:09:10.093Z,15.90
2022-08-31T23:11:39.992Z,15.90
2022-08-31T23:14:10.430Z,15.90
2022-08-31T23:16:42.749Z,15.80
2022-08-31T23:19:14.429Z,15.70
2022-08-31T23:21:52.668Z,15.80
2022-08-31T23:24:28.851Z,15.70
2022-08-31T23:27:04.214Z,15.70
2022-08-31T23:29:34.816Z,15.70
2022-08-31T23:32:05.270Z,15.60
2022-08-31T23:34:38.572Z,15.70
2022-08-31T23:37:08.980Z,15.70
2022-08-31T23:39:39.260Z,15.70
2022-08-31T23:42:12.394Z,15.70
2022-08-31T23:44:44.021Z,15.80
2022-08-31T23:47:15.733Z,15.80
2022-08-31T23:49:45.793Z,15.70
2022-08-31T23:52:18.854Z,15.60
2022-08-31T23:54:49.670Z,15.50
2022-08-31T23:57:32.369Z,15.50
